Queen Of Nanaimo — VCNX — position and weather

sailwx.info

Track history (hours):
 
Tides and Currents Weather Stations Pressure Air Temp Water Temp Dewpoint Dewpoint Depression Visibility Wind Speed Wind Dir Waves Ship Positions

Queen Of Nanaimo

Last reported at 2015-Feb-28 00:32 UTC. Time now 2015-Feb-28 00:49 UTC.
Position N 48°51' W 123°20'.

Length 130 m; draft 4 m.

Type: Ship. MMSI: 316001254.

Date/timePositionNaut miles runAvg speedWind from/ knotsBaromVisibWave heightAir tempDewpointWater temp
2015-Feb-28 00:32N 48°51' W 123°20'4 3.6
2015-Feb-27 23:30N 48°50' W 123°25'4 1.3
2015-Feb-27 20:15N 48°48' W 123°20'4 5.2
2015-Feb-27 19:32N 48°52' W 123°19'8 8.5
2015-Feb-27 18:33N 48°58' W 123°11'3 3.3
2015-Feb-27 17:33N 49°00' W 123°08'1010.2
2015-Feb-27 16:34N 48°53' W 123°18'2 2.3
2015-Feb-27 15:32N 48°51' W 123°20'3 3.4
2015-Feb-27 14:33N 48°50' W 123°25'1 0.1
2015-Feb-27 06:21N 48°51' W 123°25'3 4.3
2015-Feb-27 05:33N 48°50' W 123°20'3 2.5
2015-Feb-27 04:33N 48°53' W 123°19'1110.7
2015-Feb-27 03:33N 49°00' W 123°08'0 0.0
2015-Feb-27 02:33N 49°00' W 123°08'1110.7
2015-Feb-27 01:33N 48°53' W 123°19'3 2.8
2015-Feb-27 00:27N 48°50' W 123°20'2 0.5
2015-Feb-26 20:20N 48°48' W 123°19'3 3.8
2015-Feb-26 19:31N 48°51' W 123°21'8 8.1
2015-Feb-26 18:34N 48°57' W 123°14'5 5.0
2015-Feb-26 17:34N 49°00' W 123°08'1010.3
2015-Feb-26 16:33N 48°53' W 123°18'2 2.2
2015-Feb-26 15:34N 48°51' W 123°20'3 3.5
2015-Feb-26 14:33N 48°50' W 123°25'0 0.0
2015-Feb-25 06:05N 48°50' W 123°25'5 8.9
2015-Feb-25 05:33N 48°48' W 123°19'4 3.8
2015-Feb-25 04:33N 48°52' W 123°19'9 9.1
2015-Feb-25 03:33N 48°59' W 123°10'2 2.1
2015-Feb-25 02:34N 49°00' W 123°08'1110.7
2015-Feb-25 01:33N 48°53' W 123°19'2 2.0
2015-Feb-25 00:33N 48°51' W 123°20'3 3.3
2015-Feb-24 23:33N 48°50' W 123°25'4 1.4
2015-Feb-24 20:33N 48°48' W 123°19'3 2.9
2015-Feb-24 19:33N 48°51' W 123°20'8 7.5
2015-Feb-24 18:33N 48°57' W 123°13'5 5.0
2015-Feb-24 17:33N 49°00' W 123°08'10 9.7
2015-Feb-24 16:34N 48°53' W 123°18'3 2.7
2015-Feb-24 15:32N 48°51' W 123°20'3 3.4
2015-Feb-24 14:33N 48°49' W 123°24'2 0.2
2015-Feb-24 06:12N 48°51' W 123°26'5 8.2
2015-Feb-24 05:32N 48°48' W 123°19'4 4.1
2015-Feb-24 04:33N 48°52' W 123°18'9 9.0
2015-Feb-24 03:33N 48°59' W 123°10'2 2.0
2015-Feb-24 02:33N 49°00' W 123°08'1110.7
2015-Feb-24 01:33N 48°53' W 123°19'3 3.0
2015-Feb-24 00:24N 48°49' W 123°20'3 3.9
2015-Feb-23 23:33N 48°50' W 123°25'5 1.5
2015-Feb-23 20:33N 48°48' W 123°19'3 2.8
2015-Feb-23 19:32N 48°51' W 123°20'8 8.1
2015-Feb-23 18:33N 48°57' W 123°13'5 4.6
2015-Feb-23 17:33N 49°00' W 123°08'9 9.3
2015-Feb-23 16:34N 48°54' W 123°17'3 3.2
2015-Feb-23 15:32N 48°51' W 123°20'4 3.5
2015-Feb-23 14:29N 48°50' W 123°25'2 0.2
2015-Feb-23 06:32N 48°51' W 123°23'1313.6
2015-Feb-23 05:33N 49°00' W 123°08'1010.3
2015-Feb-23 04:33N 48°53' W 123°18'1 1.1
2015-Feb-23 03:34N 48°52' W 123°19'1111.4
2015-Feb-23 02:33N 49°00' W 123°08'6 5.6
2015-Feb-23 01:34N 48°56' W 123°13'7 6.9
2015-Feb-23 00:32N 48°51' W 123°21'3 1.1
2015-Feb-22 21:31N 48°48' W 123°19'3 3.2
2015-Feb-22 20:33N 48°51' W 123°20'8 7.7
2015-Feb-22 19:33N 48°56' W 123°13'5 5.0
2015-Feb-22 18:33N 49°00' W 123°08'9 9.5
2015-Feb-22 17:34N 48°53' W 123°17'3 2.7
2015-Feb-22 16:28N 48°51' W 123°20'4 3.7
2015-Feb-22 15:28N 48°50' W 123°25'3 0.3
2015-Feb-22 06:31N 48°51' W 123°21'4 4.2
2015-Feb-22 05:34N 48°54' W 123°17'9 8.8
2015-Feb-22 04:33N 49°00' W 123°08'0 0.0
2015-Feb-22 03:33N 49°00' W 123°08'0 0.1
2015-Feb-22 02:33N 49°00' W 123°08'1110.5
2015-Feb-22 01:33N 48°53' W 123°19'5 3.5
2015-Feb-22 00:11N 48°48' W 123°19'5 1.7
2015-Feb-21 21:27N 48°50' W 123°25'1213.7
2015-Feb-21 20:34N 48°58' W 123°11'1 0.9
2015-Feb-21 19:33N 48°58' W 123°10'8 4.1
2015-Feb-21 17:33N 48°53' W 123°19'1110.8
2015-Feb-21 16:33N 49°00' W 123°08'4 3.9
2015-Feb-21 15:34N 48°57' W 123°11'12 1.2
2015-Feb-21 06:05N 48°50' W 123°25'5 7.9
2015-Feb-21 05:29N 48°48' W 123°19'5 4.9
2015-Feb-21 04:33N 48°53' W 123°19'1010.0
2015-Feb-21 03:33N 48°60' W 123°08'1 0.7
2015-Feb-21 02:34N 49°00' W 123°08'1110.7
2015-Feb-21 01:33N 48°53' W 123°19'2 2.0
2015-Feb-21 00:31N 48°51' W 123°20'3 3.3
2015-Feb-20 23:28N 48°50' W 123°25'1 0.3
2015-Feb-20 21:11N 48°51' W 123°26'5 5.2
2015-Feb-20 20:11N 48°48' W 123°20'4 5.1
2015-Feb-20 19:25N 48°52' W 123°19'7 7.9
2015-Feb-20 18:33N 48°57' W 123°13'5 4.7
2015-Feb-20 17:33N 49°00' W 123°08'9 9.4
2015-Feb-20 16:33N 48°53' W 123°17'3 2.8
2015-Feb-20 15:29N 48°51' W 123°20'4 3.5
2015-Feb-20 14:28N 48°50' W 123°25'0 0.0
2015-Feb-20 06:06N 48°50' W 123°25'5 7.6
2015-Feb-20 05:29N 48°48' W 123°19'5 5.0
2015-Feb-20 04:33N 48°53' W 123°19'1010.0
2015-Feb-20 03:34N 48°60' W 123°08'0 0.4
2015-Feb-20 02:33N 49°00' W 123°08'10 9.9
2015-Feb-20 01:30N 48°53' W 123°19'3 2.6
2015-Feb-20 00:26N 48°50' W 123°20'2 0.6
2015-Feb-19 20:32N 48°48' W 123°19'3 3.3
2015-Feb-19 19:32N 48°51' W 123°21'9 9.0
2015-Feb-19 18:33N 48°57' W 123°11'4 3.8
2015-Feb-19 17:33N 49°00' W 123°08'1110.5
2015-Feb-19 16:33N 48°53' W 123°19'2 2.1
2015-Feb-19 15:28N 48°51' W 123°20'3 0.1
2015-Feb-18 06:04N 48°51' W 123°25'5 9.4
2015-Feb-18 05:32N 48°48' W 123°19'4 4.0
2015-Feb-18 04:34N 48°52' W 123°19'9 8.8
2015-Feb-18 03:33N 48°59' W 123°10'2 2.2
2015-Feb-18 02:33N 49°00' W 123°08'1110.6
2015-Feb-18 01:33N 48°53' W 123°19'2 1.9
2015-Feb-18 00:32N 48°51' W 123°20'  
Track history (hours):
 
Tides and Currents Weather Stations Pressure Air Temp Water Temp Dewpoint Dewpoint Depression Visibility Wind Speed Wind Dir Waves Ship Positions

Queen Of Nanaimo

Last reported at 2015-Feb-28 00:32 UTC. Time now 2015-Feb-28 00:49 UTC.
Position N 48°51' W 123°20'.

Length 130 m; draft 4 m.

Type: Ship. MMSI: 316001254.

Date/timePositionNaut miles runAvg speedWind from/ knotsBaromVisibWave heightAir tempDewpointWater temp
2015-Feb-28 00:32N 48°51' W 123°20'4 3.6
2015-Feb-27 23:30N 48°50' W 123°25'4 1.3
2015-Feb-27 20:15N 48°48' W 123°20'4 5.2
2015-Feb-27 19:32N 48°52' W 123°19'8 8.5
2015-Feb-27 18:33N 48°58' W 123°11'3 3.3
2015-Feb-27 17:33N 49°00' W 123°08'1010.2
2015-Feb-27 16:34N 48°53' W 123°18'2 2.3
2015-Feb-27 15:32N 48°51' W 123°20'3 3.4
2015-Feb-27 14:33N 48°50' W 123°25'1 0.1
2015-Feb-27 06:21N 48°51' W 123°25'3 4.3
2015-Feb-27 05:33N 48°50' W 123°20'3 2.5
2015-Feb-27 04:33N 48°53' W 123°19'1110.7
2015-Feb-27 03:33N 49°00' W 123°08'0 0.0
2015-Feb-27 02:33N 49°00' W 123°08'1110.7
2015-Feb-27 01:33N 48°53' W 123°19'3 2.8
2015-Feb-27 00:27N 48°50' W 123°20'2 0.5
2015-Feb-26 20:20N 48°48' W 123°19'3 3.8
2015-Feb-26 19:31N 48°51' W 123°21'8 8.1
2015-Feb-26 18:34N 48°57' W 123°14'5 5.0
2015-Feb-26 17:34N 49°00' W 123°08'1010.3
2015-Feb-26 16:33N 48°53' W 123°18'2 2.2
2015-Feb-26 15:34N 48°51' W 123°20'3 3.5
2015-Feb-26 14:33N 48°50' W 123°25'0 0.0
2015-Feb-25 06:05N 48°50' W 123°25'5 8.9
2015-Feb-25 05:33N 48°48' W 123°19'4 3.8
2015-Feb-25 04:33N 48°52' W 123°19'9 9.1
2015-Feb-25 03:33N 48°59' W 123°10'2 2.1
2015-Feb-25 02:34N 49°00' W 123°08'1110.7
2015-Feb-25 01:33N 48°53' W 123°19'2 2.0
2015-Feb-25 00:33N 48°51' W 123°20'3 3.3
2015-Feb-24 23:33N 48°50' W 123°25'4 1.4
2015-Feb-24 20:33N 48°48' W 123°19'3 2.9
2015-Feb-24 19:33N 48°51' W 123°20'8 7.5
2015-Feb-24 18:33N 48°57' W 123°13'5 5.0
2015-Feb-24 17:33N 49°00' W 123°08'10 9.7
2015-Feb-24 16:34N 48°53' W 123°18'3 2.7
2015-Feb-24 15:32N 48°51' W 123°20'3 3.4
2015-Feb-24 14:33N 48°49' W 123°24'2 0.2
2015-Feb-24 06:12N 48°51' W 123°26'5 8.2
2015-Feb-24 05:32N 48°48' W 123°19'4 4.1
2015-Feb-24 04:33N 48°52' W 123°18'9 9.0
2015-Feb-24 03:33N 48°59' W 123°10'2 2.0
2015-Feb-24 02:33N 49°00' W 123°08'1110.7
2015-Feb-24 01:33N 48°53' W 123°19'3 3.0
2015-Feb-24 00:24N 48°49' W 123°20'3 3.9
2015-Feb-23 23:33N 48°50' W 123°25'5 1.5
2015-Feb-23 20:33N 48°48' W 123°19'3 2.8
2015-Feb-23 19:32N 48°51' W 123°20'8 8.1
2015-Feb-23 18:33N 48°57' W 123°13'5 4.6
2015-Feb-23 17:33N 49°00' W 123°08'9 9.3
2015-Feb-23 16:34N 48°54' W 123°17'3 3.2
2015-Feb-23 15:32N 48°51' W 123°20'4 3.5
2015-Feb-23 14:29N 48°50' W 123°25'2 0.2
2015-Feb-23 06:32N 48°51' W 123°23'1313.6
2015-Feb-23 05:33N 49°00' W 123°08'1010.3
2015-Feb-23 04:33N 48°53' W 123°18'1 1.1
2015-Feb-23 03:34N 48°52' W 123°19'1111.4
2015-Feb-23 02:33N 49°00' W 123°08'6 5.6
2015-Feb-23 01:34N 48°56' W 123°13'7 6.9
2015-Feb-23 00:32N 48°51' W 123°21'3 1.1
2015-Feb-22 21:31N 48°48' W 123°19'3 3.2
2015-Feb-22 20:33N 48°51' W 123°20'8 7.7
2015-Feb-22 19:33N 48°56' W 123°13'5 5.0
2015-Feb-22 18:33N 49°00' W 123°08'9 9.5
2015-Feb-22 17:34N 48°53' W 123°17'3 2.7
2015-Feb-22 16:28N 48°51' W 123°20'4 3.7
2015-Feb-22 15:28N 48°50' W 123°25'3 0.3
2015-Feb-22 06:31N 48°51' W 123°21'4 4.2
2015-Feb-22 05:34N 48°54' W 123°17'9 8.8
2015-Feb-22 04:33N 49°00' W 123°08'0 0.0
2015-Feb-22 03:33N 49°00' W 123°08'0 0.1
2015-Feb-22 02:33N 49°00' W 123°08'1110.5
2015-Feb-22 01:33N 48°53' W 123°19'5 3.5
2015-Feb-22 00:11N 48°48' W 123°19'5 1.7
2015-Feb-21 21:27N 48°50' W 123°25'1213.7
2015-Feb-21 20:34N 48°58' W 123°11'1 0.9
2015-Feb-21 19:33N 48°58' W 123°10'8 4.1
2015-Feb-21 17:33N 48°53' W 123°19'1110.8
2015-Feb-21 16:33N 49°00' W 123°08'4 3.9
2015-Feb-21 15:34N 48°57' W 123°11'12 1.2
2015-Feb-21 06:05N 48°50' W 123°25'5 7.9
2015-Feb-21 05:29N 48°48' W 123°19'5 4.9
2015-Feb-21 04:33N 48°53' W 123°19'1010.0
2015-Feb-21 03:33N 48°60' W 123°08'1 0.7
2015-Feb-21 02:34N 49°00' W 123°08'1110.7
2015-Feb-21 01:33N 48°53' W 123°19'2 2.0
2015-Feb-21 00:31N 48°51' W 123°20'3 3.3
2015-Feb-20 23:28N 48°50' W 123°25'1 0.3
2015-Feb-20 21:11N 48°51' W 123°26'5 5.2
2015-Feb-20 20:11N 48°48' W 123°20'4 5.1
2015-Feb-20 19:25N 48°52' W 123°19'7 7.9
2015-Feb-20 18:33N 48°57' W 123°13'5 4.7
2015-Feb-20 17:33N 49°00' W 123°08'9 9.4
2015-Feb-20 16:33N 48°53' W 123°17'3 2.8
2015-Feb-20 15:29N 48°51' W 123°20'4 3.5
2015-Feb-20 14:28N 48°50' W 123°25'0 0.0
2015-Feb-20 06:06N 48°50' W 123°25'5 7.6
2015-Feb-20 05:29N 48°48' W 123°19'5 5.0
2015-Feb-20 04:33N 48°53' W 123°19'1010.0
2015-Feb-20 03:34N 48°60' W 123°08'0 0.4
2015-Feb-20 02:33N 49°00' W 123°08'10 9.9
2015-Feb-20 01:30N 48°53' W 123°19'3 2.6
2015-Feb-20 00:26N 48°50' W 123°20'2 0.6
2015-Feb-19 20:32N 48°48' W 123°19'3 3.3
2015-Feb-19 19:32N 48°51' W 123°21'9 9.0
2015-Feb-19 18:33N 48°57' W 123°11'4 3.8
2015-Feb-19 17:33N 49°00' W 123°08'1110.5
2015-Feb-19 16:33N 48°53' W 123°19'2 2.1
2015-Feb-19 15:28N 48°51' W 123°20'3 0.1
2015-Feb-18 06:04N 48°51' W 123°25'5 9.4
2015-Feb-18 05:32N 48°48' W 123°19'4 4.0
2015-Feb-18 04:34N 48°52' W 123°19'9 8.8
2015-Feb-18 03:33N 48°59' W 123°10'2 2.2
2015-Feb-18 02:33N 49°00' W 123°08'1110.6
2015-Feb-18 01:33N 48°53' W 123°19'2 1.9
2015-Feb-18 00:32N 48°51' W 123°20'  

Dump ship's entire track history